METAR Data
IDs: Format: Raw Decoded Include TAF

Data at: 1534 UTC 27 Nov 2021

ESMQ 271520Z AUTO 07005KT 4600 FEW004/// BKN012/// BKN018/// 03/02 Q0996